sensor_id;sensor_type;location;lat;lon;timestamp;P1;durP1;ratioP1;P2;durP2;ratioP2
35877;SDS011;21982;49.804;24.072;2022-11-20T00:00:05;20.67;;;11.63;;
35877;SDS011;21982;49.804;24.072;2022-11-20T00:02:31;23.67;;;13.18;;
35877;SDS011;21982;49.804;24.072;2022-11-20T00:04:56;23.70;;;12.07;;
35877;SDS011;21982;49.804;24.072;2022-11-20T00:07:22;21.70;;;11.67;;
35877;SDS011;21982;49.804;24.072;2022-11-20T00:09:48;22.33;;;11.27;;
35877;SDS011;21982;49.804;24.072;2022-11-20T00:12:13;20.17;;;11.70;;
35877;SDS011;21982;49.804;24.072;2022-11-20T00:14:38;24.00;;;11.30;;
35877;SDS011;21982;49.804;24.072;2022-11-20T00:17:04;25.10;;;12.50;;
35877;SDS011;21982;49.804;24.072;2022-11-20T00:19:29;23.63;;;11.73;;
35877;SDS011;21982;49.804;24.072;2022-11-20T00:21:54;26.33;;;13.18;;
35877;SDS011;21982;49.804;24.072;2022-11-20T00:24:20;26.88;;;12.32;;
35877;SDS011;21982;49.804;24.072;2022-11-20T00:26:46;25.27;;;11.60;;
35877;SDS011;21982;49.804;24.072;2022-11-20T00:29:11;22.67;;;12.35;;
35877;SDS011;21982;49.804;24.072;2022-11-20T00:31:37;27.27;;;14.02;;
35877;SDS011;21982;49.804;24.072;2022-11-20T00:34:02;28.57;;;14.10;;
35877;SDS011;21982;49.804;24.072;2022-11-20T00:36:28;23.75;;;12.65;;
35877;SDS011;21982;49.804;24.072;2022-11-20T00:38:57;21.93;;;10.67;;
35877;SDS011;21982;49.804;24.072;2022-11-20T00:41:23;23.73;;;13.25;;
35877;SDS011;21982;49.804;24.072;2022-11-20T00:43:50;27.50;;;12.75;;
35877;SDS011;21982;49.804;24.072;2022-11-20T00:46:17;19.80;;;11.27;;
35877;SDS011;21982;49.804;24.072;2022-11-20T00:48:45;21.58;;;13.98;;
35877;SDS011;21982;49.804;24.072;2022-11-20T00:51:11;22.50;;;11.60;;
35877;SDS011;21982;49.804;24.072;2022-11-20T00:53:38;24.58;;;13.95;;
35877;SDS011;21982;49.804;24.072;2022-11-20T00:56:04;26.90;;;11.63;;
35877;SDS011;21982;49.804;24.072;2022-11-20T00:58:32;24.00;;;12.60;;
35877;SDS011;21982;49.804;24.072;2022-11-20T01:01:03;22.17;;;11.87;;
35877;SDS011;21982;49.804;24.072;2022-11-20T01:03:34;26.87;;;11.40;;
35877;SDS011;21982;49.804;24.072;2022-11-20T01:06:04;24.17;;;13.17;;
35877;SDS011;21982;49.804;24.072;2022-11-20T01:08:32;34.63;;;15.98;;
35877;SDS011;21982;49.804;24.072;2022-11-20T01:11:00;31.20;;;13.02;;
35877;SDS011;21982;49.804;24.072;2022-11-20T01:13:30;27.13;;;12.90;;
35877;SDS011;21982;49.804;24.072;2022-11-20T01:16:24;21.27;;;12.10;;
35877;SDS011;21982;49.804;24.072;2022-11-20T01:18:49;24.52;;;14.07;;
35877;SDS011;21982;49.804;24.072;2022-11-20T01:21:17;27.20;;;13.43;;
35877;SDS011;21982;49.804;24.072;2022-11-20T01:23:44;23.90;;;11.10;;
35877;SDS011;21982;49.804;24.072;2022-11-20T01:26:14;25.15;;;12.75;;
35877;SDS011;21982;49.804;24.072;2022-11-20T01:28:42;21.73;;;12.48;;
35877;SDS011;21982;49.804;24.072;2022-11-20T01:31:14;23.20;;;13.05;;
35877;SDS011;21982;49.804;24.072;2022-11-20T01:33:44;21.85;;;12.45;;
35877;SDS011;21982;49.804;24.072;2022-11-20T01:36:11;27.40;;;13.23;;
35877;SDS011;21982;49.804;24.072;2022-11-20T01:38:39;27.60;;;13.80;;
35877;SDS011;21982;49.804;24.072;2022-11-20T01:41:04;21.30;;;11.02;;
35877;SDS011;21982;49.804;24.072;2022-11-20T01:43:32;23.42;;;11.70;;
35877;SDS011;21982;49.804;24.072;2022-11-20T01:46:19;28.43;;;11.33;;
35877;SDS011;21982;49.804;24.072;2022-11-20T01:51:19;27.27;;;12.30;;
35877;SDS011;21982;49.804;24.072;2022-11-20T01:53:53;21.77;;;11.70;;
35877;SDS011;21982;49.804;24.072;2022-11-20T01:56:20;28.52;;;12.82;;
35877;SDS011;21982;49.804;24.072;2022-11-20T01:58:48;26.20;;;12.20;;
35877;SDS011;21982;49.804;24.072;2022-11-20T02:01:18;21.45;;;10.77;;
35877;SDS011;21982;49.804;24.072;2022-11-20T02:03:43;23.30;;;11.33;;
35877;SDS011;21982;49.804;24.072;2022-11-20T02:06:29;31.97;;;14.37;;
35877;SDS011;21982;49.804;24.072;2022-11-20T02:09:00;26.70;;;14.23;;
35877;SDS011;21982;49.804;24.072;2022-11-20T02:11:25;24.25;;;12.88;;
35877;SDS011;21982;49.804;24.072;2022-11-20T02:13:50;26.58;;;12.77;;
35877;SDS011;21982;49.804;24.072;2022-11-20T02:18:42;23.83;;;14.13;;
35877;SDS011;21982;49.804;24.072;2022-11-20T02:26:33;32.43;;;13.13;;
35877;SDS011;21982;49.804;24.072;2022-11-20T02:29:05;31.63;;;13.93;;
35877;SDS011;21982;49.804;24.072;2022-11-20T02:31:35;25.52;;;13.10;;
35877;SDS011;21982;49.804;24.072;2022-11-20T02:34:01;29.85;;;13.55;;
35877;SDS011;21982;49.804;24.072;2022-11-20T02:36:27;28.48;;;12.98;;
35877;SDS011;21982;49.804;24.072;2022-11-20T02:38:54;28.80;;;12.90;;
35877;SDS011;21982;49.804;24.072;2022-11-20T02:41:20;23.90;;;13.00;;
35877;SDS011;21982;49.804;24.072;2022-11-20T02:43:47;23.48;;;12.20;;
35877;SDS011;21982;49.804;24.072;2022-11-20T02:46:12;25.20;;;11.87;;
35877;SDS011;21982;49.804;24.072;2022-11-20T02:48:37;21.85;;;12.27;;
35877;SDS011;21982;49.804;24.072;2022-11-20T02:51:03;25.60;;;12.38;;
35877;SDS011;21982;49.804;24.072;2022-11-20T02:53:28;22.60;;;10.63;;
35877;SDS011;21982;49.804;24.072;2022-11-20T02:55:54;22.30;;;11.85;;
35877;SDS011;21982;49.804;24.072;2022-11-20T02:58:19;32.25;;;13.13;;
35877;SDS011;21982;49.804;24.072;2022-11-20T03:00:44;25.85;;;11.85;;
35877;SDS011;21982;49.804;24.072;2022-11-20T03:03:10;25.33;;;11.07;;
35877;SDS011;21982;49.804;24.072;2022-11-20T03:05:35;32.25;;;14.68;;
35877;SDS011;21982;49.804;24.072;2022-11-20T03:08:00;30.43;;;15.47;;
35877;SDS011;21982;49.804;24.072;2022-11-20T03:10:26;30.52;;;14.07;;
35877;SDS011;21982;49.804;24.072;2022-11-20T03:12:55;38.03;;;14.05;;
35877;SDS011;21982;49.804;24.072;2022-11-20T03:15:21;35.53;;;15.63;;
35877;SDS011;21982;49.804;24.072;2022-11-20T03:17:47;32.63;;;15.13;;
35877;SDS011;21982;49.804;24.072;2022-11-20T03:20:13;31.45;;;14.55;;
35877;SDS011;21982;49.804;24.072;2022-11-20T03:22:38;36.72;;;15.27;;
35877;SDS011;21982;49.804;24.072;2022-11-20T03:25:04;34.38;;;13.90;;
35877;SDS011;21982;49.804;24.072;2022-11-20T03:27:35;35.15;;;15.43;;
35877;SDS011;21982;49.804;24.072;2022-11-20T03:30:01;30.13;;;14.63;;
35877;SDS011;21982;49.804;24.072;2022-11-20T03:32:26;27.92;;;12.85;;
35877;SDS011;21982;49.804;24.072;2022-11-20T03:34:51;41.78;;;14.82;;
35877;SDS011;21982;49.804;24.072;2022-11-20T03:37:17;36.85;;;15.05;;
35877;SDS011;21982;49.804;24.072;2022-11-20T03:39:42;33.83;;;15.97;;
35877;SDS011;21982;49.804;24.072;2022-11-20T03:42:08;30.57;;;14.93;;
35877;SDS011;21982;49.804;24.072;2022-11-20T03:44:54;37.30;;;16.23;;
35877;SDS011;21982;49.804;24.072;2022-11-20T03:47:19;31.60;;;14.90;;
35877;SDS011;21982;49.804;24.072;2022-11-20T03:49:45;42.67;;;16.50;;
35877;SDS011;21982;49.804;24.072;2022-11-20T03:52:10;42.35;;;16.40;;
35877;SDS011;21982;49.804;24.072;2022-11-20T03:54:35;44.17;;;16.38;;
35877;SDS011;21982;49.804;24.072;2022-11-20T03:57:01;35.72;;;16.35;;
35877;SDS011;21982;49.804;24.072;2022-11-20T03:59:26;34.65;;;15.88;;
35877;SDS011;21982;49.804;24.072;2022-11-20T04:01:51;41.90;;;16.58;;
35877;SDS011;21982;49.804;24.072;2022-11-20T04:04:17;46.17;;;17.98;;
35877;SDS011;21982;49.804;24.072;2022-11-20T04:06:42;46.28;;;17.38;;
35877;SDS011;21982;49.804;24.072;2022-11-20T04:09:08;38.80;;;16.23;;
35877;SDS011;21982;49.804;24.072;2022-11-20T04:11:34;48.78;;;16.35;;
35877;SDS011;21982;49.804;24.072;2022-11-20T04:14:02;35.58;;;16.88;;
35877;SDS011;21982;49.804;24.072;2022-11-20T04:16:30;52.05;;;15.98;;
35877;SDS011;21982;49.804;24.072;2022-11-20T04:18:58;40.28;;;16.90;;
35877;SDS011;21982;49.804;24.072;2022-11-20T04:21:25;51.65;;;15.77;;
35877;SDS011;21982;49.804;24.072;2022-11-20T04:23:52;50.15;;;17.80;;
35877;SDS011;21982;49.804;24.072;2022-11-20T04:26:20;49.92;;;19.52;;
35877;SDS011;21982;49.804;24.072;2022-11-20T04:28:46;43.25;;;18.15;;
35877;SDS011;21982;49.804;24.072;2022-11-20T04:31:16;51.78;;;17.45;;
35877;SDS011;21982;49.804;24.072;2022-11-20T04:33:44;48.63;;;18.05;;
35877;SDS011;21982;49.804;24.072;2022-11-20T04:36:17;42.92;;;17.17;;
35877;SDS011;21982;49.804;24.072;2022-11-20T04:38:51;52.13;;;18.70;;
35877;SDS011;21982;49.804;24.072;2022-11-20T04:41:19;43.72;;;18.02;;
35877;SDS011;21982;49.804;24.072;2022-11-20T04:43:48;65.50;;;19.52;;
35877;SDS011;21982;49.804;24.072;2022-11-20T04:46:15;53.60;;;20.10;;
35877;SDS011;21982;49.804;24.072;2022-11-20T04:48:41;46.20;;;18.48;;
35877;SDS011;21982;49.804;24.072;2022-11-20T04:51:07;70.50;;;22.63;;
35877;SDS011;21982;49.804;24.072;2022-11-20T04:53:32;57.97;;;20.73;;
35877;SDS011;21982;49.804;24.072;2022-11-20T04:56:01;59.65;;;21.20;;
35877;SDS011;21982;49.804;24.072;2022-11-20T04:58:29;58.78;;;20.80;;
35877;SDS011;21982;49.804;24.072;2022-11-20T05:01:28;66.57;;;21.55;;
35877;SDS011;21982;49.804;24.072;2022-11-20T05:03:47;57.67;;;21.80;;
35877;SDS011;21982;49.804;24.072;2022-11-20T05:06:14;92.40;;;20.95;;
35877;SDS011;21982;49.804;24.072;2022-11-20T05:08:41;70.18;;;18.10;;
35877;SDS011;21982;49.804;24.072;2022-11-20T05:11:08;47.58;;;19.27;;
35877;SDS011;21982;49.804;24.072;2022-11-20T05:13:35;59.30;;;20.65;;
35877;SDS011;21982;49.804;24.072;2022-11-20T05:16:09;60.35;;;19.60;;
35877;SDS011;21982;49.804;24.072;2022-11-20T05:21:02;60.45;;;20.00;;
35877;SDS011;21982;49.804;24.072;2022-11-20T05:23:30;51.50;;;22.65;;
35877;SDS011;21982;49.804;24.072;2022-11-20T05:25:57;45.90;;;20.15;;
35877;SDS011;21982;49.804;24.072;2022-11-20T05:28:23;67.72;;;20.70;;
35877;SDS011;21982;49.804;24.072;2022-11-20T05:30:49;79.57;;;22.15;;
35877;SDS011;21982;49.804;24.072;2022-11-20T05:33:16;55.17;;;20.90;;
35877;SDS011;21982;49.804;24.072;2022-11-20T05:35:42;65.05;;;21.90;;
35877;SDS011;21982;49.804;24.072;2022-11-20T05:38:07;59.60;;;19.02;;
35877;SDS011;21982;49.804;24.072;2022-11-20T05:40:33;52.65;;;21.55;;
35877;SDS011;21982;49.804;24.072;2022-11-20T05:42:59;72.00;;;24.50;;
35877;SDS011;21982;49.804;24.072;2022-11-20T05:45:25;75.10;;;23.45;;
35877;SDS011;21982;49.804;24.072;2022-11-20T05:47:50;75.18;;;25.60;;
35877;SDS011;21982;49.804;24.072;2022-11-20T05:50:15;79.55;;;27.88;;
35877;SDS011;21982;49.804;24.072;2022-11-20T05:52:41;96.40;;;25.35;;
35877;SDS011;21982;49.804;24.072;2022-11-20T05:55:06;87.30;;;26.30;;
35877;SDS011;21982;49.804;24.072;2022-11-20T05:57:32;64.78;;;23.60;;
35877;SDS011;21982;49.804;24.072;2022-11-20T05:59:57;68.10;;;24.02;;
35877;SDS011;21982;49.804;24.072;2022-11-20T06:02:23;75.20;;;24.92;;
35877;SDS011;21982;49.804;24.072;2022-11-20T06:04:48;71.33;;;23.90;;
35877;SDS011;21982;49.804;24.072;2022-11-20T06:07:14;76.63;;;22.63;;
35877;SDS011;21982;49.804;24.072;2022-11-20T06:09:40;114.05;;;25.23;;
35877;SDS011;21982;49.804;24.072;2022-11-20T06:12:05;90.80;;;25.98;;
35877;SDS011;21982;49.804;24.072;2022-11-20T06:14:31;95.20;;;24.50;;
35877;SDS011;21982;49.804;24.072;2022-11-20T06:16:57;105.88;;;22.52;;
35877;SDS011;21982;49.804;24.072;2022-11-20T06:19:23;84.80;;;25.77;;
35877;SDS011;21982;49.804;24.072;2022-11-20T06:21:48;111.05;;;26.90;;
35877;SDS011;21982;49.804;24.072;2022-11-20T06:24:14;67.35;;;21.45;;
35877;SDS011;21982;49.804;24.072;2022-11-20T06:26:40;93.15;;;24.25;;
35877;SDS011;21982;49.804;24.072;2022-11-20T06:29:06;88.40;;;26.20;;
35877;SDS011;21982;49.804;24.072;2022-11-20T06:31:31;83.07;;;25.52;;
35877;SDS011;21982;49.804;24.072;2022-11-20T06:34:02;88.13;;;23.30;;
35877;SDS011;21982;49.804;24.072;2022-11-20T06:36:29;88.82;;;25.25;;
35877;SDS011;21982;49.804;24.072;2022-11-20T06:38:54;75.45;;;23.92;;
35877;SDS011;21982;49.804;24.072;2022-11-20T06:41:20;72.07;;;23.98;;
35877;SDS011;21982;49.804;24.072;2022-11-20T06:43:47;69.07;;;21.38;;
35877;SDS011;21982;49.804;24.072;2022-11-20T06:46:13;74.88;;;24.85;;
35877;SDS011;21982;49.804;24.072;2022-11-20T06:48:42;79.00;;;24.00;;
35877;SDS011;21982;49.804;24.072;2022-11-20T06:51:07;66.57;;;22.27;;
35877;SDS011;21982;49.804;24.072;2022-11-20T06:53:33;70.72;;;24.45;;
35877;SDS011;21982;49.804;24.072;2022-11-20T06:55:59;66.60;;;20.77;;
35877;SDS011;21982;49.804;24.072;2022-11-20T06:58:28;63.50;;;21.10;;
35877;SDS011;21982;49.804;24.072;2022-11-20T07:01:03;73.60;;;22.85;;
35877;SDS011;21982;49.804;24.072;2022-11-20T07:03:30;81.35;;;25.70;;
35877;SDS011;21982;49.804;24.072;2022-11-20T07:05:56;112.35;;;27.70;;
35877;SDS011;21982;49.804;24.072;2022-11-20T07:08:22;87.28;;;26.33;;
35877;SDS011;21982;49.804;24.072;2022-11-20T07:10:48;76.35;;;25.48;;
35877;SDS011;21982;49.804;24.072;2022-11-20T07:13:22;68.30;;;23.02;;
35877;SDS011;21982;49.804;24.072;2022-11-20T07:15:47;73.15;;;22.50;;
35877;SDS011;21982;49.804;24.072;2022-11-20T07:18:13;78.07;;;23.02;;
35877;SDS011;21982;49.804;24.072;2022-11-20T07:20:38;80.43;;;23.83;;
35877;SDS011;21982;49.804;24.072;2022-11-20T07:23:03;168.05;;;27.83;;
35877;SDS011;21982;49.804;24.072;2022-11-20T07:25:29;215.52;;;29.08;;
35877;SDS011;21982;49.804;24.072;2022-11-20T07:27:58;136.35;;;27.38;;
35877;SDS011;21982;49.804;24.072;2022-11-20T07:30:25;84.35;;;24.08;;
35877;SDS011;21982;49.804;24.072;2022-11-20T07:32:51;144.18;;;28.25;;
35877;SDS011;21982;49.804;24.072;2022-11-20T07:35:18;88.93;;;22.77;;
35877;SDS011;21982;49.804;24.072;2022-11-20T07:37:43;142.30;;;26.15;;
35877;SDS011;21982;49.804;24.072;2022-11-20T07:40:10;90.60;;;20.88;;
35877;SDS011;21982;49.804;24.072;2022-11-20T07:42:49;87.15;;;25.25;;
35877;SDS011;21982;49.804;24.072;2022-11-20T07:45:15;75.40;;;21.05;;
35877;SDS011;21982;49.804;24.072;2022-11-20T07:47:41;81.15;;;21.48;;
35877;SDS011;21982;49.804;24.072;2022-11-20T07:50:07;101.28;;;26.77;;
35877;SDS011;21982;49.804;24.072;2022-11-20T07:52:32;86.65;;;23.65;;
35877;SDS011;21982;49.804;24.072;2022-11-20T07:54:58;74.10;;;21.77;;
35877;SDS011;21982;49.804;24.072;2022-11-20T07:57:23;111.30;;;25.10;;
35877;SDS011;21982;49.804;24.072;2022-11-20T07:59:48;85.95;;;20.02;;
35877;SDS011;21982;49.804;24.072;2022-11-20T08:02:14;88.20;;;22.23;;
35877;SDS011;21982;49.804;24.072;2022-11-20T08:04:39;84.75;;;23.25;;
35877;SDS011;21982;49.804;24.072;2022-11-20T08:07:04;74.03;;;24.33;;
35877;SDS011;21982;49.804;24.072;2022-11-20T08:09:30;128.90;;;24.95;;
35877;SDS011;21982;49.804;24.072;2022-11-20T08:11:55;79.30;;;25.00;;
35877;SDS011;21982;49.804;24.072;2022-11-20T08:14:39;93.57;;;25.02;;
35877;SDS011;21982;49.804;24.072;2022-11-20T08:17:04;91.15;;;26.63;;
35877;SDS011;21982;49.804;24.072;2022-11-20T08:19:30;78.88;;;23.95;;
35877;SDS011;21982;49.804;24.072;2022-11-20T08:21:55;87.07;;;24.33;;
35877;SDS011;21982;49.804;24.072;2022-11-20T08:24:20;75.93;;;25.15;;
35877;SDS011;21982;49.804;24.072;2022-11-20T08:26:46;83.68;;;22.52;;
35877;SDS011;21982;49.804;24.072;2022-11-20T08:29:11;76.95;;;25.08;;
35877;SDS011;21982;49.804;24.072;2022-11-20T08:34:08;106.65;;;25.80;;
35877;SDS011;21982;49.804;24.072;2022-11-20T08:36:33;71.43;;;24.50;;
35877;SDS011;21982;49.804;24.072;2022-11-20T08:39:00;52.88;;;21.77;;
35877;SDS011;21982;49.804;24.072;2022-11-20T08:41:25;54.45;;;23.55;;
35877;SDS011;21982;49.804;24.072;2022-11-20T08:43:56;65.07;;;23.27;;
35877;SDS011;21982;49.804;24.072;2022-11-20T08:46:27;58.90;;;22.20;;
35877;SDS011;21982;49.804;24.072;2022-11-20T08:48:55;67.70;;;21.25;;
35877;SDS011;21982;49.804;24.072;2022-11-20T08:51:21;61.30;;;18.30;;
35877;SDS011;21982;49.804;24.072;2022-11-20T08:53:46;43.92;;;18.50;;
35877;SDS011;21982;49.804;24.072;2022-11-20T08:56:14;47.83;;;18.42;;
35877;SDS011;21982;49.804;24.072;2022-11-20T08:58:40;52.28;;;21.58;;
35877;SDS011;21982;49.804;24.072;2022-11-20T09:01:05;40.78;;;18.35;;
35877;SDS011;21982;49.804;24.072;2022-11-20T09:03:30;38.00;;;18.15;;
35877;SDS011;21982;49.804;24.072;2022-11-20T09:06:06;45.35;;;18.35;;
35877;SDS011;21982;49.804;24.072;2022-11-20T09:08:32;39.95;;;18.50;;
35877;SDS011;21982;49.804;24.072;2022-11-20T09:10:58;39.92;;;18.20;;
35877;SDS011;21982;49.804;24.072;2022-11-20T09:13:25;46.60;;;19.55;;
35877;SDS011;21982;49.804;24.072;2022-11-20T09:15:55;37.70;;;16.73;;
35877;SDS011;21982;49.804;24.072;2022-11-20T09:18:21;38.45;;;17.30;;
35877;SDS011;21982;49.804;24.072;2022-11-20T09:20:46;34.83;;;16.80;;
35877;SDS011;21982;49.804;24.072;2022-11-20T09:23:12;39.15;;;18.38;;
35877;SDS011;21982;49.804;24.072;2022-11-20T09:25:37;32.45;;;15.13;;
35877;SDS011;21982;49.804;24.072;2022-11-20T09:28:03;35.70;;;15.50;;
35877;SDS011;21982;49.804;24.072;2022-11-20T09:30:28;31.45;;;14.43;;
35877;SDS011;21982;49.804;24.072;2022-11-20T09:32:54;27.92;;;15.38;;
35877;SDS011;21982;49.804;24.072;2022-11-20T09:35:20;30.38;;;13.82;;
35877;SDS011;21982;49.804;24.072;2022-11-20T09:37:45;31.83;;;14.20;;
35877;SDS011;21982;49.804;24.072;2022-11-20T09:40:19;29.60;;;13.77;;
35877;SDS011;21982;49.804;24.072;2022-11-20T09:48:54;32.83;;;14.38;;
35877;SDS011;21982;49.804;24.072;2022-11-20T09:56:59;33.08;;;14.82;;
35877;SDS011;21982;49.804;24.072;2022-11-20T09:59:45;33.88;;;14.23;;
35877;SDS011;21982;49.804;24.072;2022-11-20T10:02:16;28.02;;;13.60;;
35877;SDS011;21982;49.804;24.072;2022-11-20T10:04:53;28.10;;;12.40;;
35877;SDS011;21982;49.804;24.072;2022-11-20T10:07:28;27.42;;;14.00;;
35877;SDS011;21982;49.804;24.072;2022-11-20T10:09:59;27.17;;;12.65;;
35877;SDS011;21982;49.804;24.072;2022-11-20T10:15:56;28.58;;;13.40;;
35877;SDS011;21982;49.804;24.072;2022-11-20T10:29:54;24.48;;;11.70;;
35877;SDS011;21982;49.804;24.072;2022-11-20T10:32:30;32.40;;;12.75;;
35877;SDS011;21982;49.804;24.072;2022-11-20T10:37:40;29.52;;;13.27;;
35877;SDS011;21982;49.804;24.072;2022-11-20T10:43:01;30.50;;;12.38;;
35877;SDS011;21982;49.804;24.072;2022-11-20T10:45:40;25.05;;;12.20;;
35877;SDS011;21982;49.804;24.072;2022-11-20T10:48:28;28.23;;;13.07;;
35877;SDS011;21982;49.804;24.072;2022-11-20T10:56:48;28.80;;;13.05;;
35877;SDS011;21982;49.804;24.072;2022-11-20T11:01:44;31.05;;;13.45;;
35877;SDS011;21982;49.804;24.072;2022-11-20T11:04:17;23.98;;;12.25;;
35877;SDS011;21982;49.804;24.072;2022-11-20T11:07:02;18.88;;;9.60;;
35877;SDS011;21982;49.804;24.072;2022-11-20T11:09:36;28.65;;;12.07;;
35877;SDS011;21982;49.804;24.072;2022-11-20T11:12:07;22.65;;;11.38;;
35877;SDS011;21982;49.804;24.072;2022-11-20T11:14:41;17.45;;;9.23;;
35877;SDS011;21982;49.804;24.072;2022-11-20T11:17:21;20.95;;;11.95;;
35877;SDS011;21982;49.804;24.072;2022-11-20T11:19:58;27.83;;;12.60;;
35877;SDS011;21982;49.804;24.072;2022-11-20T11:22:25;34.55;;;12.20;;
35877;SDS011;21982;49.804;24.072;2022-11-20T11:24:53;24.42;;;13.00;;
35877;SDS011;21982;49.804;24.072;2022-11-20T11:27:19;28.60;;;15.45;;
35877;SDS011;21982;49.804;24.072;2022-11-20T11:29:45;27.55;;;12.63;;
35877;SDS011;21982;49.804;24.072;2022-11-20T11:32:14;21.95;;;11.65;;
35877;SDS011;21982;49.804;24.072;2022-11-20T11:34:43;21.00;;;10.60;;
35877;SDS011;21982;49.804;24.072;2022-11-20T11:37:18;22.58;;;11.73;;
35877;SDS011;21982;49.804;24.072;2022-11-20T11:39:51;22.92;;;12.65;;
35877;SDS011;21982;49.804;24.072;2022-11-20T11:42:17;21.30;;;9.25;;
35877;SDS011;21982;49.804;24.072;2022-11-20T11:44:44;20.80;;;9.65;;
35877;SDS011;21982;49.804;24.072;2022-11-20T11:52:56;23.33;;;11.65;;
35877;SDS011;21982;49.804;24.072;2022-11-20T11:55:37;19.73;;;10.75;;
35877;SDS011;21982;49.804;24.072;2022-11-20T12:00:49;21.02;;;9.95;;
35877;SDS011;21982;49.804;24.072;2022-11-20T12:03:29;18.45;;;11.00;;
35877;SDS011;21982;49.804;24.072;2022-11-20T12:06:05;18.27;;;11.15;;
35877;SDS011;21982;49.804;24.072;2022-11-20T12:08:55;18.45;;;10.20;;
35877;SDS011;21982;49.804;24.072;2022-11-20T12:14:13;16.90;;;9.55;;
35877;SDS011;21982;49.804;24.072;2022-11-20T12:16:39;15.73;;;9.32;;
35877;SDS011;21982;49.804;24.072;2022-11-20T12:19:10;18.83;;;8.25;;
35877;SDS011;21982;49.804;24.072;2022-11-20T12:21:46;16.45;;;9.95;;
35877;SDS011;21982;49.804;24.072;2022-11-20T12:29:58;19.83;;;10.25;;
35877;SDS011;21982;49.804;24.072;2022-11-20T12:41:14;19.58;;;7.20;;
35877;SDS011;21982;49.804;24.072;2022-11-20T12:47:24;17.35;;;6.55;;
35877;SDS011;21982;49.804;24.072;2022-11-20T13:00:50;14.38;;;8.85;;
35877;SDS011;21982;49.804;24.072;2022-11-20T13:03:37;13.27;;;7.57;;
35877;SDS011;21982;49.804;24.072;2022-11-20T13:06:13;15.65;;;8.65;;
35877;SDS011;21982;49.804;24.072;2022-11-20T13:08:45;14.43;;;7.53;;
35877;SDS011;21982;49.804;24.072;2022-11-20T13:11:34;14.50;;;8.05;;
35877;SDS011;21982;49.804;24.072;2022-11-20T13:14:11;13.75;;;7.32;;
35877;SDS011;21982;49.804;24.072;2022-11-20T13:16:54;13.05;;;8.65;;
35877;SDS011;21982;49.804;24.072;2022-11-20T13:19:40;10.90;;;6.90;;
35877;SDS011;21982;49.804;24.072;2022-11-20T13:22:07;12.68;;;8.10;;
35877;SDS011;21982;49.804;24.072;2022-11-20T13:24:33;13.40;;;8.32;;
35877;SDS011;21982;49.804;24.072;2022-11-20T13:27:03;11.25;;;6.68;;
35877;SDS011;21982;49.804;24.072;2022-11-20T13:29:29;12.32;;;8.18;;
35877;SDS011;21982;49.804;24.072;2022-11-20T13:34:50;11.93;;;6.50;;
35877;SDS011;21982;49.804;24.072;2022-11-20T13:37:27;12.30;;;7.22;;
35877;SDS011;21982;49.804;24.072;2022-11-20T13:42:44;12.90;;;6.85;;
35877;SDS011;21982;49.804;24.072;2022-11-20T13:45:26;25.60;;;10.90;;
35877;SDS011;21982;49.804;24.072;2022-11-20T13:47:55;32.72;;;13.63;;
35877;SDS011;21982;49.804;24.072;2022-11-20T13:50:22;35.40;;;14.93;;
35877;SDS011;21982;49.804;24.072;2022-11-20T13:58:29;14.95;;;7.53;;
35877;SDS011;21982;49.804;24.072;2022-11-20T14:01:10;15.23;;;8.30;;
35877;SDS011;21982;49.804;24.072;2022-11-20T14:03:42;12.55;;;6.93;;
35877;SDS011;21982;49.804;24.072;2022-11-20T14:06:25;13.82;;;7.13;;
35877;SDS011;21982;49.804;24.072;2022-11-20T14:08:56;14.75;;;8.32;;
35877;SDS011;21982;49.804;24.072;2022-11-20T14:11:26;16.38;;;10.02;;
35877;SDS011;21982;49.804;24.072;2022-11-20T14:16:27;25.45;;;8.75;;
35877;SDS011;21982;49.804;24.072;2022-11-20T14:18:54;16.38;;;8.43;;
35877;SDS011;21982;49.804;24.072;2022-11-20T14:21:28;17.95;;;7.95;;
35877;SDS011;21982;49.804;24.072;2022-11-20T14:24:07;19.52;;;9.00;;
35877;SDS011;21982;49.804;24.072;2022-11-20T14:26:37;19.63;;;10.60;;
35877;SDS011;21982;49.804;24.072;2022-11-20T14:29:16;19.00;;;8.88;;
35877;SDS011;21982;49.804;24.072;2022-11-20T14:31:47;27.45;;;9.80;;
35877;SDS011;21982;49.804;24.072;2022-11-20T14:34:18;19.58;;;8.43;;
35877;SDS011;21982;49.804;24.072;2022-11-20T14:36:47;20.15;;;9.50;;
35877;SDS011;21982;49.804;24.072;2022-11-20T14:39:20;20.63;;;9.20;;
35877;SDS011;21982;49.804;24.072;2022-11-20T14:41:52;30.25;;;13.68;;
35877;SDS011;21982;49.804;24.072;2022-11-20T14:44:20;24.63;;;12.88;;
35877;SDS011;21982;49.804;24.072;2022-11-20T14:46:50;19.75;;;10.80;;
35877;SDS011;21982;49.804;24.072;2022-11-20T14:49:17;35.72;;;12.07;;
35877;SDS011;21982;49.804;24.072;2022-11-20T14:51:43;27.00;;;13.18;;
35877;SDS011;21982;49.804;24.072;2022-11-20T14:54:11;19.80;;;9.18;;
35877;SDS011;21982;49.804;24.072;2022-11-20T14:56:39;26.92;;;10.82;;
35877;SDS011;21982;49.804;24.072;2022-11-20T15:06:25;26.80;;;11.55;;
35877;SDS011;21982;49.804;24.072;2022-11-20T15:08:52;36.08;;;17.30;;
35877;SDS011;21982;49.804;24.072;2022-11-20T15:11:18;47.40;;;19.95;;
35877;SDS011;21982;49.804;24.072;2022-11-20T15:13:48;43.10;;;19.00;;
35877;SDS011;21982;49.804;24.072;2022-11-20T15:16:17;35.45;;;15.52;;
35877;SDS011;21982;49.804;24.072;2022-11-20T15:18:45;31.98;;;15.13;;
35877;SDS011;21982;49.804;24.072;2022-11-20T15:21:12;35.85;;;15.73;;
35877;SDS011;21982;49.804;24.072;2022-11-20T15:23:45;25.23;;;13.55;;
35877;SDS011;21982;49.804;24.072;2022-11-20T15:26:11;40.38;;;12.05;;
35877;SDS011;21982;49.804;24.072;2022-11-20T15:28:42;36.58;;;13.82;;
35877;SDS011;21982;49.804;24.072;2022-11-20T15:31:13;34.47;;;15.45;;
35877;SDS011;21982;49.804;24.072;2022-11-20T15:33:40;39.45;;;15.30;;
35877;SDS011;21982;49.804;24.072;2022-11-20T15:36:06;45.60;;;17.05;;
35877;SDS011;21982;49.804;24.072;2022-11-20T15:38:31;44.15;;;16.75;;
35877;SDS011;21982;49.804;24.072;2022-11-20T15:40:57;38.25;;;17.80;;
35877;SDS011;21982;49.804;24.072;2022-11-20T15:43:22;59.50;;;19.17;;
35877;SDS011;21982;49.804;24.072;2022-11-20T15:45:52;61.28;;;29.05;;
35877;SDS011;21982;49.804;24.072;2022-11-20T15:48:23;52.55;;;20.77;;
35877;SDS011;21982;49.804;24.072;2022-11-20T15:53:26;48.15;;;17.60;;
35877;SDS011;21982;49.804;24.072;2022-11-20T15:55:52;48.70;;;18.60;;
35877;SDS011;21982;49.804;24.072;2022-11-20T15:58:17;59.47;;;19.15;;
35877;SDS011;21982;49.804;24.072;2022-11-20T16:00:45;54.20;;;22.83;;
35877;SDS011;21982;49.804;24.072;2022-11-20T16:03:11;66.88;;;20.83;;
35877;SDS011;21982;49.804;24.072;2022-11-20T16:05:37;58.03;;;23.05;;
35877;SDS011;21982;49.804;24.072;2022-11-20T16:08:04;48.25;;;16.88;;
35877;SDS011;21982;49.804;24.072;2022-11-20T16:10:30;52.80;;;18.58;;
35877;SDS011;21982;49.804;24.072;2022-11-20T16:12:55;64.97;;;17.98;;
35877;SDS011;21982;49.804;24.072;2022-11-20T16:15:39;59.05;;;20.88;;
35877;SDS011;21982;49.804;24.072;2022-11-20T16:18:14;65.22;;;22.23;;